createdAt,value
2019-01-16T00:01:15.034Z,76.61
2019-01-16T00:04:05.195Z,76.73
2019-01-16T00:07:07.447Z,76.72
2019-01-16T00:09:58.209Z,76.77
2019-01-16T00:12:39.309Z,76.33
2019-01-16T00:15:53.388Z,76.72
2019-01-16T00:18:55.634Z,76.43
2019-01-16T00:21:52.508Z,76.64
2019-01-16T00:24:41.738Z,76.46
2019-01-16T00:27:41.155Z,76.44
2019-01-16T00:30:30.845Z,76.24
2019-01-16T00:33:30.189Z,76.63
2019-01-16T00:36:13.914Z,76.38
2019-01-16T00:39:02.695Z,76.56
2019-01-16T00:45:16.450Z,76.84
2019-01-16T00:48:05.428Z,77.16
2019-01-16T00:51:10.952Z,77.10
2019-01-16T00:54:11.069Z,77.39
2019-01-16T00:57:01.173Z,77.34
2019-01-16T00:59:43.587Z,77.79
2019-01-16T01:02:36.932Z,77.85
2019-01-16T01:05:27.213Z,78.45
2019-01-16T01:08:16.243Z,78.40
2019-01-16T01:11:05.379Z,79.14
2019-01-16T01:13:47.422Z,78.96
2019-01-16T01:16:29.397Z,78.95
2019-01-16T01:19:25.520Z,78.67
2019-01-16T01:22:30.921Z,78.68
2019-01-16T01:25:21.319Z,78.18
2019-01-16T01:28:10.090Z,78.31
2019-01-16T01:31:00.589Z,77.90
2019-01-16T01:33:56.753Z,78.09
2019-01-16T01:36:46.903Z,77.99
2019-01-16T01:39:35.827Z,77.78
2019-01-16T01:42:31.829Z,77.74
2019-01-16T01:45:15.921Z,77.55
2019-01-16T01:48:04.460Z,78.10
2019-01-16T01:51:00.848Z,78.58
2019-01-16T01:53:54.846Z,79.06
2019-01-16T01:56:58.271Z,79.71
2019-01-16T01:59:54.257Z,80.05
2019-01-16T02:02:44.398Z,80.19
2019-01-16T02:05:33.537Z,79.83
2019-01-16T02:08:13.968Z,79.92
2019-01-16T02:11:07.185Z,79.71
2019-01-16T02:13:57.139Z,79.20
2019-01-16T02:16:56.389Z,78.97
2019-01-16T02:19:58.860Z,78.42
2019-01-16T02:22:47.694Z,78.12
2019-01-16T02:25:36.403Z,77.32
2019-01-16T02:28:29.750Z,76.96
2019-01-16T02:31:16.332Z,76.78
2019-01-16T02:34:05.246Z,77.17
2019-01-16T02:36:52.192Z,76.65
2019-01-16T02:39:36.567Z,76.78
2019-01-16T02:42:29.707Z,76.88
2019-01-16T02:45:16.313Z,76.59
2019-01-16T02:48:09.488Z,76.79
2019-01-16T02:50:58.280Z,76.72
2019-01-16T02:53:50.143Z,76.32
2019-01-16T02:56:40.717Z,76.04
2019-01-16T02:59:21.241Z,76.48
2019-01-16T03:02:10.565Z,76.68
2019-01-16T03:05:02.036Z,76.56
2019-01-16T03:07:50.702Z,76.55
2019-01-16T03:11:02.117Z,76.61
2019-01-16T03:13:57.198Z,76.79
2019-01-16T03:16:46.278Z,77.00
2019-01-16T03:19:39.214Z,77.17
2019-01-16T03:22:28.172Z,76.86
2019-01-16T03:25:12.093Z,76.96
2019-01-16T03:28:08.548Z,77.18
2019-01-16T03:31:00.507Z,76.80
2019-01-16T03:33:43.767Z,77.13
2019-01-16T03:36:24.622Z,77.10
2019-01-16T03:42:14.540Z,77.20
2019-01-16T03:45:01.662Z,76.82
2019-01-16T03:48:04.032Z,76.46
2019-01-16T03:51:00.186Z,76.66
2019-01-16T03:53:51.416Z,77.08
2019-01-16T03:57:04.376Z,77.22
2019-01-16T03:59:52.061Z,77.05
2019-01-16T04:02:51.190Z,76.65
2019-01-16T04:05:47.486Z,76.91
2019-01-16T04:08:37.509Z,76.82
2019-01-16T04:14:58.751Z,77.11
2019-01-16T04:21:03.632Z,76.80
2019-01-16T04:23:59.598Z,76.79
2019-01-16T04:26:48.771Z,76.69
2019-01-16T04:29:51.057Z,77.08
2019-01-16T04:32:34.833Z,76.92
2019-01-16T04:35:28.402Z,76.94
2019-01-16T04:38:14.902Z,76.92
2019-01-16T04:41:23.423Z,76.55
2019-01-16T04:44:32.247Z,76.97
2019-01-16T04:47:21.031Z,76.94
2019-01-16T04:50:11.209Z,76.73
2019-01-16T04:52:56.616Z,76.71
2019-01-16T04:55:48.135Z,76.59
2019-01-16T04:58:37.052Z,76.45
2019-01-16T05:01:19.288Z,76.75
2019-01-16T05:04:24.442Z,76.53
2019-01-16T05:07:17.759Z,76.78
2019-01-16T05:10:15.986Z,76.23
2019-01-16T05:13:24.228Z,76.44
2019-01-16T05:16:17.418Z,76.69
2019-01-16T05:19:07.558Z,76.38
2019-01-16T05:22:09.985Z,76.37
2019-01-16T05:25:12.117Z,76.30
2019-01-16T05:28:02.209Z,75.87
2019-01-16T05:31:15.200Z,76.43
2019-01-16T05:34:17.132Z,76.46
2019-01-16T05:36:59.402Z,76.37
2019-01-16T05:39:49.661Z,76.79
2019-01-16T05:42:42.229Z,76.69
2019-01-16T05:45:32.689Z,76.71
2019-01-16T05:48:31.463Z,76.76
2019-01-16T05:51:17.485Z,76.66
2019-01-16T05:54:09.274Z,76.68
2019-01-16T05:57:09.423Z,76.93
2019-01-16T05:59:59.572Z,76.48
2019-01-16T06:02:52.748Z,76.10
2019-01-16T06:05:42.948Z,76.73
2019-01-16T06:08:27.959Z,76.42
2019-01-16T06:11:19.745Z,76.43
2019-01-16T06:14:08.737Z,76.77
2019-01-16T06:17:05.091Z,76.59
2019-01-16T06:19:58.699Z,76.95
2019-01-16T06:22:47.739Z,76.64
2019-01-16T06:25:36.888Z,76.27
2019-01-16T06:28:30.120Z,76.50
2019-01-16T06:31:18.900Z,76.63
2019-01-16T06:34:13.755Z,76.13
2019-01-16T06:36:52.364Z,76.46
2019-01-16T06:39:50.530Z,76.42
2019-01-16T06:42:40.767Z,76.45
2019-01-16T06:45:37.143Z,76.28
2019-01-16T06:48:26.189Z,76.15
2019-01-16T06:51:19.072Z,76.15
2019-01-16T06:54:09.527Z,76.19
2019-01-16T06:57:11.640Z,76.15
2019-01-16T07:00:02.297Z,76.00
2019-01-16T07:02:51.556Z,76.56
2019-01-16T07:05:46.155Z,76.60
2019-01-16T07:08:36.349Z,76.47
2019-01-16T07:11:26.770Z,76.26
2019-01-16T07:14:15.890Z,76.48
2019-01-16T07:17:06.140Z,76.54
2019-01-16T07:19:55.986Z,76.05
2019-01-16T07:22:52.306Z,76.66
2019-01-16T07:25:51.735Z,76.22
2019-01-16T07:28:44.804Z,76.21
2019-01-16T07:31:45.240Z,76.55
2019-01-16T07:34:40.410Z,76.03
2019-01-16T07:37:47.895Z,76.13
2019-01-16T07:40:32.083Z,76.12
2019-01-16T07:43:20.803Z,75.71
2019-01-16T07:46:11.017Z,76.51
2019-01-16T07:48:59.795Z,76.02
2019-01-16T07:51:49.005Z,75.72
2019-01-16T07:54:42.172Z,76.11
2019-01-16T07:57:32.443Z,75.80
2019-01-16T08:00:21.515Z,76.63
2019-01-16T08:03:23.726Z,75.84
2019-01-16T08:06:13.855Z,76.04
2019-01-16T08:08:59.074Z,76.51
2019-01-16T08:11:48.059Z,75.94
2019-01-16T08:14:41.044Z,75.27
2019-01-16T08:17:46.507Z,75.42
2019-01-16T08:20:47.902Z,74.83
2019-01-16T08:23:38.610Z,75.15
2019-01-16T08:26:27.853Z,75.14
2019-01-16T08:29:24.727Z,74.84
2019-01-16T08:32:17.907Z,74.55
2019-01-16T08:35:20.183Z,75.17
2019-01-16T08:38:19.947Z,75.60
2019-01-16T08:41:08.985Z,75.07
2019-01-16T08:43:59.108Z,75.02
2019-01-16T08:46:42.890Z,74.36
2019-01-16T08:49:31.870Z,74.97
2019-01-16T08:52:38.220Z,74.69
2019-01-16T08:55:40.467Z,74.47
2019-01-16T08:58:24.389Z,74.13
2019-01-16T09:01:17.325Z,73.58
2019-01-16T09:04:05.120Z,73.38
2019-01-16T09:07:02.202Z,73.05
2019-01-16T09:09:50.807Z,73.09
2019-01-16T09:13:03.356Z,73.22
2019-01-16T09:15:52.094Z,72.69
2019-01-16T09:18:30.982Z,73.56
2019-01-16T09:21:30.484Z,73.36
2019-01-16T09:24:19.531Z,73.34
2019-01-16T09:27:08.380Z,71.73
2019-01-16T09:29:57.563Z,71.36
2019-01-16T09:32:46.020Z,70.73
2019-01-16T09:35:33.224Z,70.91
2019-01-16T09:38:24.333Z,69.94
2019-01-16T09:41:19.456Z,70.56
2019-01-16T09:44:15.412Z,68.50
2019-01-16T09:46:55.630Z,67.18
2019-01-16T09:49:58.859Z,67.55
2019-01-16T09:52:49.585Z,66.35
2019-01-16T09:55:50.349Z,65.42
2019-01-16T09:58:44.293Z,63.49
2019-01-16T10:01:43.292Z,63.09
2019-01-16T10:04:32.016Z,62.86
2019-01-16T10:07:25.189Z,62.61
2019-01-16T10:10:13.950Z,63.33
2019-01-16T10:13:04.107Z,63.37
2019-01-16T10:16:03.379Z,63.83
2019-01-16T10:18:50.658Z,65.57
2019-01-16T10:21:58.589Z,65.17
2019-01-16T10:25:33.667Z,64.76
2019-01-16T10:28:25.448Z,65.96
2019-01-16T10:31:21.589Z,64.24
2019-01-16T10:34:10.330Z,64.62
2019-01-16T10:37:08.762Z,64.58
2019-01-16T10:40:05.166Z,64.88
2019-01-16T10:42:46.980Z,64.17
2019-01-16T10:45:49.218Z,65.17
2019-01-16T10:48:34.556Z,63.42
2019-01-16T10:51:39.640Z,62.12
2019-01-16T10:54:26.124Z,63.15
2019-01-16T10:57:14.913Z,63.69
2019-01-16T11:00:05.126Z,63.97
2019-01-16T11:02:55.584Z,63.54
2019-01-16T11:05:49.416Z,64.00
2019-01-16T11:08:43.686Z,62.98
2019-01-16T11:11:32.809Z,62.89
2019-01-16T11:14:28.465Z,62.80
2019-01-16T11:17:18.690Z,61.82
2019-01-16T11:20:07.522Z,63.00
2019-01-16T11:22:56.316Z,63.57
2019-01-16T11:25:44.479Z,65.15
2019-01-16T11:28:25.656Z,65.09
2019-01-16T11:31:36.050Z,60.47
2019-01-16T11:34:25.105Z,60.34
2019-01-16T11:37:24.548Z,59.74
2019-01-16T11:40:32.938Z,58.91
2019-01-16T11:43:22.015Z,58.66
2019-01-16T11:46:15.689Z,58.08
2019-01-16T11:49:02.680Z,57.85
2019-01-16T11:51:51.845Z,55.56
2019-01-16T11:54:54.197Z,56.39
2019-01-16T11:57:44.557Z,56.12
2019-01-16T12:00:35.396Z,58.20
2019-01-16T12:03:16.616Z,54.79
2019-01-16T12:06:10.603Z,53.92
2019-01-16T12:09:04.931Z,53.30
2019-01-16T12:11:54.311Z,51.46
2019-01-16T12:14:42.033Z,55.40
2019-01-16T12:17:31.069Z,54.63
2019-01-16T12:20:23.730Z,50.62
2019-01-16T12:23:12.565Z,52.89
2019-01-16T12:26:07.862Z,49.44
2019-01-16T12:28:51.145Z,49.42
2019-01-16T12:31:32.926Z,49.37
2019-01-16T12:34:32.451Z,48.97
2019-01-16T12:37:21.310Z,46.32
2019-01-16T12:40:11.117Z,47.94
2019-01-16T12:42:59.812Z,51.96
2019-01-16T12:45:49.040Z,56.42
2019-01-16T12:48:48.210Z,55.86
2019-01-16T12:51:33.623Z,55.30
2019-01-16T12:54:21.636Z,56.59
2019-01-16T12:57:12.150Z,56.65
2019-01-16T12:59:52.918Z,53.87
2019-01-16T13:02:55.516Z,54.62
2019-01-16T13:05:43.807Z,55.23
2019-01-16T13:08:33.986Z,53.41
2019-01-16T13:11:17.163Z,51.98
2019-01-16T13:14:30.021Z,46.28
2019-01-16T13:17:24.645Z,46.30
2019-01-16T13:20:03.953Z,47.05
2019-01-16T13:23:03.328Z,47.45
2019-01-16T13:25:52.342Z,49.17
2019-01-16T13:28:51.610Z,48.29
2019-01-16T13:31:50.743Z,48.55
2019-01-16T13:34:39.581Z,49.81
2019-01-16T13:37:32.944Z,49.11
2019-01-16T13:40:30.673Z,46.90
2019-01-16T13:43:19.946Z,50.07
2019-01-16T13:46:16.198Z,48.61
2019-01-16T13:49:09.347Z,46.65
2019-01-16T13:52:15.744Z,47.11
2019-01-16T13:55:05.471Z,43.01
2019-01-16T14:01:04.004Z,44.25
2019-01-16T14:04:06.262Z,44.38
2019-01-16T14:06:54.913Z,41.38
2019-01-16T14:09:43.634Z,42.08
2019-01-16T14:12:45.720Z,44.91
2019-01-16T14:15:52.540Z,42.46
2019-01-16T14:18:48.980Z,45.78
2019-01-16T14:21:42.772Z,44.46
2019-01-16T14:24:41.479Z,45.18
2019-01-16T14:27:34.476Z,45.13
2019-01-16T14:30:25.216Z,41.61
2019-01-16T14:33:24.452Z,44.52
2019-01-16T14:36:22.929Z,40.47
2019-01-16T14:39:17.824Z,43.40
2019-01-16T14:42:23.449Z,45.28
2019-01-16T14:45:12.474Z,47.59
2019-01-16T14:47:59.742Z,47.82
2019-01-16T14:50:41.938Z,48.21
2019-01-16T14:56:58.414Z,50.89
2019-01-16T14:59:47.725Z,53.72
2019-01-16T15:02:46.082Z,54.85
2019-01-16T15:05:45.528Z,56.46
2019-01-16T15:08:34.358Z,56.69
2019-01-16T15:11:30.727Z,57.21
2019-01-16T15:14:29.639Z,59.53
2019-01-16T15:17:25.533Z,60.03
2019-01-16T15:20:20.644Z,59.04
2019-01-16T15:23:26.423Z,58.70
2019-01-16T15:26:22.196Z,60.25
2019-01-16T15:29:18.254Z,61.69
2019-01-16T15:32:00.246Z,63.10
2019-01-16T15:38:19.117Z,65.24
2019-01-16T15:41:17.617Z,64.78
2019-01-16T15:44:06.694Z,64.76
2019-01-16T15:47:01.979Z,66.24
2019-01-16T15:50:07.608Z,66.70
2019-01-16T15:53:06.806Z,68.21
2019-01-16T15:55:55.645Z,67.34
2019-01-16T15:58:36.837Z,68.54
2019-01-16T16:01:26.964Z,67.58
2019-01-16T16:04:26.341Z,68.35
2019-01-16T16:07:09.467Z,69.53
2019-01-16T16:10:21.275Z,68.02
2019-01-16T16:13:17.468Z,64.30
2019-01-16T16:16:08.805Z,66.58
2019-01-16T16:19:04.124Z,66.55
2019-01-16T16:22:01.681Z,64.68
2019-01-16T16:24:50.712Z,67.09
2019-01-16T16:27:39.998Z,67.60
2019-01-16T16:30:30.304Z,68.64
2019-01-16T16:33:10.272Z,69.53
2019-01-16T16:36:03.730Z,70.15
2019-01-16T16:39:05.928Z,70.18
2019-01-16T16:41:55.433Z,69.50
2019-01-16T16:44:48.440Z,71.17
2019-01-16T16:47:41.417Z,71.22
2019-01-16T16:50:40.986Z,72.74
2019-01-16T16:53:32.215Z,72.74
2019-01-16T16:56:34.007Z,72.42
2019-01-16T16:59:24.683Z,72.60
2019-01-16T17:02:17.707Z,72.96
2019-01-16T17:05:31.729Z,72.10
2019-01-16T17:08:20.307Z,72.24
2019-01-16T17:11:18.403Z,72.81
2019-01-16T17:14:07.264Z,72.21
2019-01-16T17:16:56.389Z,72.27
2019-01-16T17:19:49.601Z,73.14
2019-01-16T17:22:52.053Z,74.42
2019-01-16T17:25:30.018Z,73.97
2019-01-16T17:28:21.072Z,73.52
2019-01-16T17:31:20.552Z,74.10
2019-01-16T17:34:07.921Z,73.70
2019-01-16T17:36:51.133Z,74.74
2019-01-16T17:39:44.095Z,75.56
2019-01-16T17:46:12.910Z,74.70
2019-01-16T17:48:54.809Z,74.00
2019-01-16T17:51:50.451Z,74.92
2019-01-16T17:54:45.901Z,74.58
2019-01-16T17:57:36.473Z,74.13
2019-01-16T18:00:34.565Z,74.21
2019-01-16T18:03:25.252Z,74.35
2019-01-16T18:06:28.337Z,74.47
2019-01-16T18:09:23.139Z,74.59
2019-01-16T18:12:18.109Z,74.65
2019-01-16T18:15:13.567Z,74.79
2019-01-16T18:18:03.087Z,74.68
2019-01-16T18:21:06.085Z,74.67
2019-01-16T18:23:59.202Z,74.56
2019-01-16T18:26:49.410Z,74.72
2019-01-16T18:29:44.697Z,75.45
2019-01-16T18:32:47.106Z,75.21
2019-01-16T18:35:43.390Z,75.32
2019-01-16T18:38:33.144Z,76.13
2019-01-16T18:41:27.326Z,76.09
2019-01-16T18:44:07.252Z,76.40
2019-01-16T18:47:16.097Z,76.32
2019-01-16T18:50:15.679Z,75.89
2019-01-16T18:53:08.798Z,76.79
2019-01-16T18:59:05.515Z,77.65
2019-01-16T19:01:49.773Z,76.44
2019-01-16T19:04:39.919Z,76.92
2019-01-16T19:07:36.790Z,76.67
2019-01-16T19:10:37.906Z,77.09
2019-01-16T19:13:34.585Z,77.11
2019-01-16T19:16:17.940Z,76.32
2019-01-16T19:19:08.061Z,75.93
2019-01-16T19:21:53.642Z,76.12
2019-01-16T19:24:40.785Z,76.46
2019-01-16T19:27:29.847Z,76.42
2019-01-16T19:30:23.176Z,76.71
2019-01-16T19:33:03.597Z,76.90
2019-01-16T19:36:02.794Z,76.78
2019-01-16T19:38:56.198Z,76.68
2019-01-16T19:41:58.718Z,75.76
2019-01-16T19:44:51.815Z,75.92
2019-01-16T19:47:41.669Z,76.17
2019-01-16T19:50:30.231Z,76.85
2019-01-16T19:53:18.082Z,76.88
2019-01-16T19:56:14.547Z,76.90
2019-01-16T19:59:03.903Z,77.81
2019-01-16T20:01:52.640Z,78.00
2019-01-16T20:04:48.652Z,78.05
2019-01-16T20:07:41.622Z,78.01
2019-01-16T20:10:32.137Z,77.97
2019-01-16T20:13:11.990Z,77.68
2019-01-16T20:15:52.783Z,77.42
2019-01-16T20:18:37.837Z,77.35
2019-01-16T20:21:33.920Z,77.90
2019-01-16T20:24:26.110Z,77.72
2019-01-16T20:27:35.184Z,77.99
2019-01-16T20:30:40.045Z,78.02
2019-01-16T20:33:23.628Z,78.33
2019-01-16T20:36:11.868Z,78.20
2019-01-16T20:39:02.080Z,78.68
2019-01-16T20:41:51.107Z,78.61
2019-01-16T20:44:33.853Z,78.34
2019-01-16T20:47:24.187Z,77.72
2019-01-16T20:50:12.703Z,77.82
2019-01-16T20:53:01.741Z,77.33
2019-01-16T20:55:51.197Z,77.06
2019-01-16T20:58:41.456Z,77.67
2019-01-16T21:01:30.461Z,78.61
2019-01-16T21:04:35.754Z,78.80
2019-01-16T21:07:19.410Z,78.92
2019-01-16T21:10:00.970Z,78.55
2019-01-16T21:12:40.644Z,77.85
2019-01-16T21:15:24.586Z,77.16
2019-01-16T21:18:20.861Z,77.04
2019-01-16T21:21:13.983Z,76.51
2019-01-16T21:27:15.521Z,77.19
2019-01-16T21:30:04.619Z,75.78
2019-01-16T21:33:03.939Z,76.39
2019-01-16T21:35:48.097Z,76.44
2019-01-16T21:38:41.474Z,75.93
2019-01-16T21:41:31.695Z,76.76
2019-01-16T21:44:32.230Z,77.47
2019-01-16T21:47:25.009Z,76.89
2019-01-16T21:50:18.887Z,77.29
2019-01-16T21:53:16.038Z,75.50
2019-01-16T21:56:12.505Z,76.37
2019-01-16T21:59:02.403Z,76.17
2019-01-16T22:01:52.260Z,75.79
2019-01-16T22:04:49.003Z,76.53
2019-01-16T22:07:57.566Z,76.10
2019-01-16T22:10:57.103Z,75.24
2019-01-16T22:14:05.841Z,74.96
2019-01-16T22:20:01.175Z,75.61
2019-01-16T22:22:50.078Z,76.15
2019-01-16T22:25:52.563Z,75.70
2019-01-16T22:28:41.319Z,75.00
2019-01-16T22:31:33.109Z,75.34
2019-01-16T22:34:25.733Z,75.67
2019-01-16T22:37:05.299Z,75.49
2019-01-16T22:39:54.169Z,77.00
2019-01-16T22:42:45.881Z,76.52
2019-01-16T22:45:54.759Z,77.54
2019-01-16T22:51:48.007Z,76.88
2019-01-16T22:54:44.197Z,76.90
2019-01-16T22:57:33.479Z,76.38
2019-01-16T23:00:26.400Z,76.47
2019-01-16T23:03:20.289Z,76.94
2019-01-16T23:06:10.514Z,77.58
2019-01-16T23:09:06.533Z,77.44
2019-01-16T23:12:11.160Z,77.03
2019-01-16T23:15:01.114Z,77.05
2019-01-16T23:18:03.570Z,76.95
2019-01-16T23:20:52.556Z,77.03
2019-01-16T23:23:55.790Z,77.46
2019-01-16T23:26:55.040Z,76.56
2019-01-16T23:29:40.987Z,76.46
2019-01-16T23:32:29.735Z,78.39
2019-01-16T23:35:28.982Z,79.11
2019-01-16T23:38:25.289Z,79.99
2019-01-16T23:41:21.514Z,79.31
2019-01-16T23:44:11.761Z,79.51
2019-01-16T23:47:01.824Z,78.92
2019-01-16T23:49:55.061Z,78.64
2019-01-16T23:52:37.246Z,78.52
2019-01-16T23:55:27.596Z,79.32
2019-01-16T23:58:11.094Z,79.27
